sensor_id;sensor_type;location;lat;lon;timestamp;P1;durP1;ratioP1;P2;durP2;ratioP2
48925;SDS011;39838;59.938;30.642;2023-01-13T00:00:01;12.38;;;7.75;;
48925;SDS011;39838;59.938;30.642;2023-01-13T00:02:30;14.25;;;7.03;;
48925;SDS011;39838;59.938;30.642;2023-01-13T00:04:58;14.57;;;8.48;;
48925;SDS011;39838;59.938;30.642;2023-01-13T00:07:26;14.43;;;8.43;;
48925;SDS011;39838;59.938;30.642;2023-01-13T00:09:53;14.70;;;8.30;;
48925;SDS011;39838;59.938;30.642;2023-01-13T00:12:21;14.48;;;8.93;;
48925;SDS011;39838;59.938;30.642;2023-01-13T00:14:48;14.43;;;8.48;;
48925;SDS011;39838;59.938;30.642;2023-01-13T00:17:16;13.18;;;7.95;;
48925;SDS011;39838;59.938;30.642;2023-01-13T00:19:43;14.15;;;8.10;;
48925;SDS011;39838;59.938;30.642;2023-01-13T00:22:10;14.18;;;7.85;;
48925;SDS011;39838;59.938;30.642;2023-01-13T00:24:37;11.90;;;7.50;;
48925;SDS011;39838;59.938;30.642;2023-01-13T00:27:04;12.77;;;7.53;;
48925;SDS011;39838;59.938;30.642;2023-01-13T00:29:33;13.32;;;7.90;;
48925;SDS011;39838;59.938;30.642;2023-01-13T00:32:00;13.98;;;7.43;;
48925;SDS011;39838;59.938;30.642;2023-01-13T00:34:27;14.98;;;8.20;;
48925;SDS011;39838;59.938;30.642;2023-01-13T00:36:54;14.60;;;7.82;;
48925;SDS011;39838;59.938;30.642;2023-01-13T00:39:22;13.60;;;7.43;;
48925;SDS011;39838;59.938;30.642;2023-01-13T00:41:49;12.27;;;7.43;;
48925;SDS011;39838;59.938;30.642;2023-01-13T00:44:34;12.30;;;7.40;;
48925;SDS011;39838;59.938;30.642;2023-01-13T00:47:02;12.40;;;7.25;;
48925;SDS011;39838;59.938;30.642;2023-01-13T00:49:29;12.20;;;7.32;;
48925;SDS011;39838;59.938;30.642;2023-01-13T00:51:56;13.65;;;7.40;;
48925;SDS011;39838;59.938;30.642;2023-01-13T00:54:23;12.60;;;6.90;;
48925;SDS011;39838;59.938;30.642;2023-01-13T00:56:50;12.65;;;7.20;;
48925;SDS011;39838;59.938;30.642;2023-01-13T00:59:18;13.40;;;7.30;;
48925;SDS011;39838;59.938;30.642;2023-01-13T01:01:46;12.13;;;8.00;;
48925;SDS011;39838;59.938;30.642;2023-01-13T01:04:13;11.23;;;6.53;;
48925;SDS011;39838;59.938;30.642;2023-01-13T01:06:40;10.98;;;6.78;;
48925;SDS011;39838;59.938;30.642;2023-01-13T01:09:09;12.15;;;7.07;;
48925;SDS011;39838;59.938;30.642;2023-01-13T01:11:38;10.95;;;6.88;;
48925;SDS011;39838;59.938;30.642;2023-01-13T01:14:05;12.15;;;7.18;;
48925;SDS011;39838;59.938;30.642;2023-01-13T01:16:32;11.50;;;7.40;;
48925;SDS011;39838;59.938;30.642;2023-01-13T01:19:01;11.93;;;7.38;;
48925;SDS011;39838;59.938;30.642;2023-01-13T01:21:29;12.50;;;6.93;;
48925;SDS011;39838;59.938;30.642;2023-01-13T01:23:57;11.63;;;6.75;;
48925;SDS011;39838;59.938;30.642;2023-01-13T01:26:26;11.88;;;6.60;;
48925;SDS011;39838;59.938;30.642;2023-01-13T01:28:54;12.27;;;7.07;;
48925;SDS011;39838;59.938;30.642;2023-01-13T01:31:22;14.02;;;6.70;;
48925;SDS011;39838;59.938;30.642;2023-01-13T01:33:51;13.32;;;7.45;;
48925;SDS011;39838;59.938;30.642;2023-01-13T01:36:21;10.13;;;6.55;;
48925;SDS011;39838;59.938;30.642;2023-01-13T01:38:50;11.32;;;6.65;;
48925;SDS011;39838;59.938;30.642;2023-01-13T01:41:18;10.35;;;6.35;;
48925;SDS011;39838;59.938;30.642;2023-01-13T01:43:51;10.73;;;7.03;;
48925;SDS011;39838;59.938;30.642;2023-01-13T01:46:24;9.27;;;5.93;;
48925;SDS011;39838;59.938;30.642;2023-01-13T01:48:53;12.48;;;6.45;;
48925;SDS011;39838;59.938;30.642;2023-01-13T01:51:24;10.57;;;6.65;;
48925;SDS011;39838;59.938;30.642;2023-01-13T01:53:53;11.25;;;6.60;;
48925;SDS011;39838;59.938;30.642;2023-01-13T01:56:23;10.45;;;6.35;;
48925;SDS011;39838;59.938;30.642;2023-01-13T01:58:51;12.18;;;7.20;;
48925;SDS011;39838;59.938;30.642;2023-01-13T02:01:19;11.52;;;6.47;;
48925;SDS011;39838;59.938;30.642;2023-01-13T02:03:49;9.82;;;5.90;;
48925;SDS011;39838;59.938;30.642;2023-01-13T02:06:21;9.52;;;6.43;;
48925;SDS011;39838;59.938;30.642;2023-01-13T02:08:52;11.73;;;6.97;;
48925;SDS011;39838;59.938;30.642;2023-01-13T02:11:26;11.13;;;6.18;;
48925;SDS011;39838;59.938;30.642;2023-01-13T02:14:27;9.05;;;6.05;;
48925;SDS011;39838;59.938;30.642;2023-01-13T02:17:18;12.18;;;6.60;;
48925;SDS011;39838;59.938;30.642;2023-01-13T02:20:12;9.68;;;5.82;;
48925;SDS011;39838;59.938;30.642;2023-01-13T02:29:33;9.30;;;5.18;;
48925;SDS011;39838;59.938;30.642;2023-01-13T02:32:42;9.43;;;6.10;;
48925;SDS011;39838;59.938;30.642;2023-01-13T02:35:19;10.57;;;5.95;;
48925;SDS011;39838;59.938;30.642;2023-01-13T02:37:50;10.02;;;6.60;;
48925;SDS011;39838;59.938;30.642;2023-01-13T02:40:19;10.77;;;6.32;;
48925;SDS011;39838;59.938;30.642;2023-01-13T02:42:52;10.55;;;5.93;;
48925;SDS011;39838;59.938;30.642;2023-01-13T02:45:43;10.30;;;6.65;;
48925;SDS011;39838;59.938;30.642;2023-01-13T02:48:15;10.35;;;5.80;;
48925;SDS011;39838;59.938;30.642;2023-01-13T02:50:47;10.98;;;5.55;;
48925;SDS011;39838;59.938;30.642;2023-01-13T02:53:20;9.75;;;5.70;;
48925;SDS011;39838;59.938;30.642;2023-01-13T02:55:52;10.77;;;6.50;;
48925;SDS011;39838;59.938;30.642;2023-01-13T02:58:23;11.57;;;6.38;;
48925;SDS011;39838;59.938;30.642;2023-01-13T03:00:54;8.98;;;5.65;;
48925;SDS011;39838;59.938;30.642;2023-01-13T03:03:21;9.55;;;5.82;;
48925;SDS011;39838;59.938;30.642;2023-01-13T03:05:48;8.88;;;5.70;;
48925;SDS011;39838;59.938;30.642;2023-01-13T03:08:21;9.43;;;5.50;;
48925;SDS011;39838;59.938;30.642;2023-01-13T03:11:00;9.80;;;6.13;;
48925;SDS011;39838;59.938;30.642;2023-01-13T03:13:37;10.25;;;6.30;;
48925;SDS011;39838;59.938;30.642;2023-01-13T03:16:17;8.65;;;5.65;;
48925;SDS011;39838;59.938;30.642;2023-01-13T03:18:54;9.30;;;5.60;;
48925;SDS011;39838;59.938;30.642;2023-01-13T03:21:36;12.00;;;6.47;;
48925;SDS011;39838;59.938;30.642;2023-01-13T03:24:10;11.52;;;6.20;;
48925;SDS011;39838;59.938;30.642;2023-01-13T03:26:42;10.13;;;5.82;;
48925;SDS011;39838;59.938;30.642;2023-01-13T03:29:16;10.73;;;6.45;;
48925;SDS011;39838;59.938;30.642;2023-01-13T03:31:50;10.63;;;6.28;;
48925;SDS011;39838;59.938;30.642;2023-01-13T03:34:23;11.60;;;6.20;;
48925;SDS011;39838;59.938;30.642;2023-01-13T03:36:53;9.52;;;6.50;;
48925;SDS011;39838;59.938;30.642;2023-01-13T03:39:25;9.73;;;6.07;;
48925;SDS011;39838;59.938;30.642;2023-01-13T03:41:58;11.60;;;7.07;;
48925;SDS011;39838;59.938;30.642;2023-01-13T03:44:29;10.35;;;7.10;;
48925;SDS011;39838;59.938;30.642;2023-01-13T03:47:05;12.18;;;7.07;;
48925;SDS011;39838;59.938;30.642;2023-01-13T03:49:38;11.25;;;6.85;;
48925;SDS011;39838;59.938;30.642;2023-01-13T03:52:11;13.10;;;7.10;;
48925;SDS011;39838;59.938;30.642;2023-01-13T03:54:44;10.52;;;6.68;;
48925;SDS011;39838;59.938;30.642;2023-01-13T03:57:18;14.63;;;6.18;;
48925;SDS011;39838;59.938;30.642;2023-01-13T03:59:49;11.60;;;6.93;;
48925;SDS011;39838;59.938;30.642;2023-01-13T04:02:23;9.63;;;5.93;;
48925;SDS011;39838;59.938;30.642;2023-01-13T04:04:59;10.23;;;6.38;;
48925;SDS011;39838;59.938;30.642;2023-01-13T04:07:31;10.85;;;6.60;;
48925;SDS011;39838;59.938;30.642;2023-01-13T04:10:06;10.18;;;6.18;;
48925;SDS011;39838;59.938;30.642;2023-01-13T04:12:36;11.40;;;6.90;;
48925;SDS011;39838;59.938;30.642;2023-01-13T04:15:29;11.38;;;7.15;;
48925;SDS011;39838;59.938;30.642;2023-01-13T04:18:09;11.32;;;6.95;;
48925;SDS011;39838;59.938;30.642;2023-01-13T04:20:37;11.40;;;7.38;;
48925;SDS011;39838;59.938;30.642;2023-01-13T04:23:06;12.20;;;6.75;;
48925;SDS011;39838;59.938;30.642;2023-01-13T04:25:33;10.98;;;6.75;;
48925;SDS011;39838;59.938;30.642;2023-01-13T04:28:01;15.05;;;7.22;;
48925;SDS011;39838;59.938;30.642;2023-01-13T04:30:28;12.57;;;7.55;;
48925;SDS011;39838;59.938;30.642;2023-01-13T04:32:55;10.70;;;6.53;;
48925;SDS011;39838;59.938;30.642;2023-01-13T04:35:23;12.65;;;7.68;;
48925;SDS011;39838;59.938;30.642;2023-01-13T04:37:51;12.38;;;7.15;;
48925;SDS011;39838;59.938;30.642;2023-01-13T04:40:18;13.68;;;7.18;;
48925;SDS011;39838;59.938;30.642;2023-01-13T04:42:45;9.98;;;6.78;;
48925;SDS011;39838;59.938;30.642;2023-01-13T04:45:12;14.07;;;7.60;;
48925;SDS011;39838;59.938;30.642;2023-01-13T04:47:40;13.52;;;7.88;;
48925;SDS011;39838;59.938;30.642;2023-01-13T04:50:07;13.25;;;8.10;;
48925;SDS011;39838;59.938;30.642;2023-01-13T04:52:37;11.25;;;6.85;;
48925;SDS011;39838;59.938;30.642;2023-01-13T04:55:05;12.73;;;7.20;;
48925;SDS011;39838;59.938;30.642;2023-01-13T04:57:34;12.68;;;6.93;;
48925;SDS011;39838;59.938;30.642;2023-01-13T05:00:03;12.35;;;7.10;;
48925;SDS011;39838;59.938;30.642;2023-01-13T05:02:31;10.98;;;6.80;;
48925;SDS011;39838;59.938;30.642;2023-01-13T05:04:59;11.05;;;6.93;;
48925;SDS011;39838;59.938;30.642;2023-01-13T05:07:26;13.48;;;7.88;;
48925;SDS011;39838;59.938;30.642;2023-01-13T05:09:54;11.85;;;7.05;;
48925;SDS011;39838;59.938;30.642;2023-01-13T05:12:21;12.38;;;6.93;;
48925;SDS011;39838;59.938;30.642;2023-01-13T05:15:06;11.02;;;7.00;;
48925;SDS011;39838;59.938;30.642;2023-01-13T05:17:52;12.27;;;7.05;;
48925;SDS011;39838;59.938;30.642;2023-01-13T05:20:19;9.63;;;5.97;;
48925;SDS011;39838;59.938;30.642;2023-01-13T05:22:46;11.52;;;7.30;;
48925;SDS011;39838;59.938;30.642;2023-01-13T05:25:32;13.93;;;8.63;;
48925;SDS011;39838;59.938;30.642;2023-01-13T05:28:04;11.65;;;6.45;;
48925;SDS011;39838;59.938;30.642;2023-01-13T05:30:34;11.50;;;6.97;;
48925;SDS011;39838;59.938;30.642;2023-01-13T05:33:03;12.48;;;7.22;;
48925;SDS011;39838;59.938;30.642;2023-01-13T05:35:30;12.95;;;7.65;;
48925;SDS011;39838;59.938;30.642;2023-01-13T05:37:57;13.10;;;7.82;;
48925;SDS011;39838;59.938;30.642;2023-01-13T05:40:24;11.93;;;7.47;;
48925;SDS011;39838;59.938;30.642;2023-01-13T05:43:10;12.48;;;7.78;;
48925;SDS011;39838;59.938;30.642;2023-01-13T05:45:45;15.35;;;7.47;;
48925;SDS011;39838;59.938;30.642;2023-01-13T05:48:13;12.15;;;6.85;;
48925;SDS011;39838;59.938;30.642;2023-01-13T05:50:41;18.48;;;7.63;;
48925;SDS011;39838;59.938;30.642;2023-01-13T05:53:08;12.95;;;7.35;;
48925;SDS011;39838;59.938;30.642;2023-01-13T05:55:37;11.82;;;7.35;;
48925;SDS011;39838;59.938;30.642;2023-01-13T05:58:05;13.75;;;7.35;;
48925;SDS011;39838;59.938;30.642;2023-01-13T06:00:34;12.85;;;7.30;;
48925;SDS011;39838;59.938;30.642;2023-01-13T06:03:02;9.35;;;5.55;;
48925;SDS011;39838;59.938;30.642;2023-01-13T06:05:29;12.77;;;7.00;;
48925;SDS011;39838;59.938;30.642;2023-01-13T06:07:57;11.82;;;7.25;;
48925;SDS011;39838;59.938;30.642;2023-01-13T06:10:25;13.73;;;7.60;;
48925;SDS011;39838;59.938;30.642;2023-01-13T06:12:54;11.10;;;6.28;;
48925;SDS011;39838;59.938;30.642;2023-01-13T06:15:21;11.52;;;6.97;;
48925;SDS011;39838;59.938;30.642;2023-01-13T06:17:50;12.52;;;6.47;;
48925;SDS011;39838;59.938;30.642;2023-01-13T06:20:18;14.18;;;6.95;;
48925;SDS011;39838;59.938;30.642;2023-01-13T06:22:46;12.13;;;6.85;;
48925;SDS011;39838;59.938;30.642;2023-01-13T06:25:18;10.70;;;6.63;;
48925;SDS011;39838;59.938;30.642;2023-01-13T06:27:50;12.05;;;7.10;;
48925;SDS011;39838;59.938;30.642;2023-01-13T06:30:18;12.45;;;7.05;;
48925;SDS011;39838;59.938;30.642;2023-01-13T06:32:47;11.55;;;6.30;;
48925;SDS011;39838;59.938;30.642;2023-01-13T06:35:19;13.30;;;6.70;;
48925;SDS011;39838;59.938;30.642;2023-01-13T06:37:50;13.68;;;6.75;;
48925;SDS011;39838;59.938;30.642;2023-01-13T06:40:19;11.77;;;5.97;;
48925;SDS011;39838;59.938;30.642;2023-01-13T06:42:47;12.45;;;6.95;;
48925;SDS011;39838;59.938;30.642;2023-01-13T06:45:31;9.77;;;5.95;;
48925;SDS011;39838;59.938;30.642;2023-01-13T06:48:01;11.38;;;6.50;;
48925;SDS011;39838;59.938;30.642;2023-01-13T06:50:28;11.95;;;6.72;;
48925;SDS011;39838;59.938;30.642;2023-01-13T06:52:55;13.80;;;6.65;;
48925;SDS011;39838;59.938;30.642;2023-01-13T06:55:23;9.75;;;6.07;;
48925;SDS011;39838;59.938;30.642;2023-01-13T06:57:51;13.43;;;7.13;;
48925;SDS011;39838;59.938;30.642;2023-01-13T07:00:20;11.65;;;7.10;;
48925;SDS011;39838;59.938;30.642;2023-01-13T07:02:48;14.32;;;7.03;;
48925;SDS011;39838;59.938;30.642;2023-01-13T07:05:17;12.90;;;7.22;;
48925;SDS011;39838;59.938;30.642;2023-01-13T07:07:45;11.88;;;7.32;;
48925;SDS011;39838;59.938;30.642;2023-01-13T07:10:13;14.90;;;6.90;;
48925;SDS011;39838;59.938;30.642;2023-01-13T07:12:46;12.02;;;6.75;;
48925;SDS011;39838;59.938;30.642;2023-01-13T07:15:32;12.30;;;6.95;;
48925;SDS011;39838;59.938;30.642;2023-01-13T07:18:00;12.93;;;6.97;;
48925;SDS011;39838;59.938;30.642;2023-01-13T07:20:29;12.82;;;7.15;;
48925;SDS011;39838;59.938;30.642;2023-01-13T07:22:56;12.98;;;7.30;;
48925;SDS011;39838;59.938;30.642;2023-01-13T07:25:23;11.52;;;6.97;;
48925;SDS011;39838;59.938;30.642;2023-01-13T07:27:50;14.57;;;7.13;;
48925;SDS011;39838;59.938;30.642;2023-01-13T07:30:18;14.35;;;7.13;;
48925;SDS011;39838;59.938;30.642;2023-01-13T07:32:45;13.25;;;6.95;;
48925;SDS011;39838;59.938;30.642;2023-01-13T07:35:12;11.05;;;6.40;;
48925;SDS011;39838;59.938;30.642;2023-01-13T07:37:40;10.77;;;6.60;;
48925;SDS011;39838;59.938;30.642;2023-01-13T07:40:08;15.23;;;6.43;;
48925;SDS011;39838;59.938;30.642;2023-01-13T07:42:37;14.48;;;6.85;;
48925;SDS011;39838;59.938;30.642;2023-01-13T07:45:22;16.02;;;7.03;;
48925;SDS011;39838;59.938;30.642;2023-01-13T07:47:50;9.52;;;6.05;;
48925;SDS011;39838;59.938;30.642;2023-01-13T07:50:18;13.82;;;6.60;;
48925;SDS011;39838;59.938;30.642;2023-01-13T07:52:49;10.38;;;6.47;;
48925;SDS011;39838;59.938;30.642;2023-01-13T07:55:17;10.63;;;6.55;;
48925;SDS011;39838;59.938;30.642;2023-01-13T07:57:44;9.85;;;6.28;;
48925;SDS011;39838;59.938;30.642;2023-01-13T08:00:14;12.10;;;6.60;;
48925;SDS011;39838;59.938;30.642;2023-01-13T08:02:42;13.45;;;7.05;;
48925;SDS011;39838;59.938;30.642;2023-01-13T08:05:12;9.20;;;6.05;;
48925;SDS011;39838;59.938;30.642;2023-01-13T08:07:39;10.40;;;6.50;;
48925;SDS011;39838;59.938;30.642;2023-01-13T08:10:08;12.48;;;6.38;;
48925;SDS011;39838;59.938;30.642;2023-01-13T08:12:35;9.52;;;5.80;;
48925;SDS011;39838;59.938;30.642;2023-01-13T08:15:20;11.68;;;6.47;;
48925;SDS011;39838;59.938;30.642;2023-01-13T08:17:47;10.82;;;6.05;;
48925;SDS011;39838;59.938;30.642;2023-01-13T08:20:14;11.38;;;6.40;;
48925;SDS011;39838;59.938;30.642;2023-01-13T08:22:42;10.80;;;6.30;;
48925;SDS011;39838;59.938;30.642;2023-01-13T08:25:10;11.02;;;6.38;;
48925;SDS011;39838;59.938;30.642;2023-01-13T08:27:38;10.23;;;6.43;;
48925;SDS011;39838;59.938;30.642;2023-01-13T08:30:06;11.82;;;6.43;;
48925;SDS011;39838;59.938;30.642;2023-01-13T08:32:33;10.15;;;6.07;;
48925;SDS011;39838;59.938;30.642;2023-01-13T08:35:00;10.80;;;6.30;;
48925;SDS011;39838;59.938;30.642;2023-01-13T08:37:28;11.30;;;7.05;;
48925;SDS011;39838;59.938;30.642;2023-01-13T08:39:55;10.48;;;6.25;;
48925;SDS011;39838;59.938;30.642;2023-01-13T08:42:24;9.57;;;6.53;;
48925;SDS011;39838;59.938;30.642;2023-01-13T08:44:52;9.88;;;5.80;;
48925;SDS011;39838;59.938;30.642;2023-01-13T08:47:19;10.40;;;6.20;;
48925;SDS011;39838;59.938;30.642;2023-01-13T08:49:47;10.88;;;5.93;;
48925;SDS011;39838;59.938;30.642;2023-01-13T08:52:14;10.02;;;6.25;;
48925;SDS011;39838;59.938;30.642;2023-01-13T08:54:42;9.57;;;6.15;;
48925;SDS011;39838;59.938;30.642;2023-01-13T08:57:09;11.07;;;5.85;;
48925;SDS011;39838;59.938;30.642;2023-01-13T08:59:38;9.63;;;5.90;;
48925;SDS011;39838;59.938;30.642;2023-01-13T09:02:08;10.85;;;7.18;;
48925;SDS011;39838;59.938;30.642;2023-01-13T09:04:39;9.63;;;5.93;;
48925;SDS011;39838;59.938;30.642;2023-01-13T09:07:06;9.55;;;5.65;;
48925;SDS011;39838;59.938;30.642;2023-01-13T09:09:34;13.20;;;6.22;;
48925;SDS011;39838;59.938;30.642;2023-01-13T09:12:02;10.98;;;6.25;;
48925;SDS011;39838;59.938;30.642;2023-01-13T09:14:48;10.35;;;6.13;;
48925;SDS011;39838;59.938;30.642;2023-01-13T09:17:15;10.23;;;6.00;;
48925;SDS011;39838;59.938;30.642;2023-01-13T09:19:43;9.35;;;5.70;;
48925;SDS011;39838;59.938;30.642;2023-01-13T09:22:12;12.90;;;6.15;;
48925;SDS011;39838;59.938;30.642;2023-01-13T09:24:41;10.70;;;6.28;;
48925;SDS011;39838;59.938;30.642;2023-01-13T09:27:08;9.20;;;6.22;;
48925;SDS011;39838;59.938;30.642;2023-01-13T09:29:38;9.05;;;6.13;;
48925;SDS011;39838;59.938;30.642;2023-01-13T09:32:09;10.52;;;6.15;;
48925;SDS011;39838;59.938;30.642;2023-01-13T09:34:37;9.38;;;5.82;;
48925;SDS011;39838;59.938;30.642;2023-01-13T09:37:22;9.93;;;5.97;;
48925;SDS011;39838;59.938;30.642;2023-01-13T09:39:49;11.07;;;6.82;;
48925;SDS011;39838;59.938;30.642;2023-01-13T09:42:17;11.98;;;7.20;;
48925;SDS011;39838;59.938;30.642;2023-01-13T09:45:08;10.20;;;6.55;;
48925;SDS011;39838;59.938;30.642;2023-01-13T09:47:41;11.85;;;6.18;;
48925;SDS011;39838;59.938;30.642;2023-01-13T09:50:20;9.75;;;6.28;;
48925;SDS011;39838;59.938;30.642;2023-01-13T09:52:55;10.68;;;6.30;;
48925;SDS011;39838;59.938;30.642;2023-01-13T09:55:26;10.25;;;5.95;;
48925;SDS011;39838;59.938;30.642;2023-01-13T09:57:59;11.20;;;7.45;;
48925;SDS011;39838;59.938;30.642;2023-01-13T10:00:28;10.25;;;6.65;;
48925;SDS011;39838;59.938;30.642;2023-01-13T10:05:54;11.98;;;7.47;;
48925;SDS011;39838;59.938;30.642;2023-01-13T10:08:25;13.25;;;6.53;;
48925;SDS011;39838;59.938;30.642;2023-01-13T10:10:55;10.35;;;6.75;;
48925;SDS011;39838;59.938;30.642;2023-01-13T10:13:25;12.13;;;6.90;;
48925;SDS011;39838;59.938;30.642;2023-01-13T10:16:14;11.38;;;6.55;;
48925;SDS011;39838;59.938;30.642;2023-01-13T10:18:55;11.93;;;7.50;;
48925;SDS011;39838;59.938;30.642;2023-01-13T10:24:37;10.65;;;7.35;;
48925;SDS011;39838;59.938;30.642;2023-01-13T10:27:22;12.35;;;7.13;;
48925;SDS011;39838;59.938;30.642;2023-01-13T10:29:54;10.32;;;6.53;;
48925;SDS011;39838;59.938;30.642;2023-01-13T10:32:21;10.30;;;6.72;;
48925;SDS011;39838;59.938;30.642;2023-01-13T10:34:50;10.52;;;6.63;;
48925;SDS011;39838;59.938;30.642;2023-01-13T10:37:21;11.98;;;7.38;;
48925;SDS011;39838;59.938;30.642;2023-01-13T10:39:50;9.95;;;7.03;;
48925;SDS011;39838;59.938;30.642;2023-01-13T10:42:21;13.68;;;7.05;;
48925;SDS011;39838;59.938;30.642;2023-01-13T10:44:50;12.98;;;7.47;;
48925;SDS011;39838;59.938;30.642;2023-01-13T10:47:19;11.27;;;6.97;;
48925;SDS011;39838;59.938;30.642;2023-01-13T10:50:00;11.77;;;7.40;;
48925;SDS011;39838;59.938;30.642;2023-01-13T10:52:31;12.07;;;7.20;;
48925;SDS011;39838;59.938;30.642;2023-01-13T10:55:02;10.82;;;7.00;;
48925;SDS011;39838;59.938;30.642;2023-01-13T10:57:48;12.60;;;6.93;;
48925;SDS011;39838;59.938;30.642;2023-01-13T11:00:21;14.35;;;6.80;;
48925;SDS011;39838;59.938;30.642;2023-01-13T11:03:04;13.35;;;6.93;;
48925;SDS011;39838;59.938;30.642;2023-01-13T11:08:14;12.05;;;6.45;;
48925;SDS011;39838;59.938;30.642;2023-01-13T11:10:43;12.85;;;6.68;;
48925;SDS011;39838;59.938;30.642;2023-01-13T11:13:13;10.73;;;6.53;;
48925;SDS011;39838;59.938;30.642;2023-01-13T11:15:43;12.02;;;7.13;;
48925;SDS011;39838;59.938;30.642;2023-01-13T11:18:23;11.98;;;7.10;;
48925;SDS011;39838;59.938;30.642;2023-01-13T11:20:58;11.88;;;7.25;;
48925;SDS011;39838;59.938;30.642;2023-01-13T11:23:30;10.73;;;6.68;;
48925;SDS011;39838;59.938;30.642;2023-01-13T11:26:03;13.10;;;7.22;;
48925;SDS011;39838;59.938;30.642;2023-01-13T11:28:41;12.93;;;7.47;;
48925;SDS011;39838;59.938;30.642;2023-01-13T11:31:15;11.02;;;6.93;;
48925;SDS011;39838;59.938;30.642;2023-01-13T11:33:47;13.07;;;7.07;;
48925;SDS011;39838;59.938;30.642;2023-01-13T11:36:21;12.13;;;7.28;;
48925;SDS011;39838;59.938;30.642;2023-01-13T11:38:51;10.38;;;6.75;;
48925;SDS011;39838;59.938;30.642;2023-01-13T11:41:25;11.57;;;7.28;;
48925;SDS011;39838;59.938;30.642;2023-01-13T11:43:59;12.77;;;7.05;;
48925;SDS011;39838;59.938;30.642;2023-01-13T11:46:38;10.80;;;6.53;;
48925;SDS011;39838;59.938;30.642;2023-01-13T11:49:07;10.23;;;6.53;;
48925;SDS011;39838;59.938;30.642;2023-01-13T11:51:45;11.55;;;7.18;;
48925;SDS011;39838;59.938;30.642;2023-01-13T11:54:22;12.20;;;6.93;;
48925;SDS011;39838;59.938;30.642;2023-01-13T11:57:13;13.23;;;7.20;;
48925;SDS011;39838;59.938;30.642;2023-01-13T11:59:55;14.70;;;7.07;;
48925;SDS011;39838;59.938;30.642;2023-01-13T12:02:40;15.23;;;7.22;;
48925;SDS011;39838;59.938;30.642;2023-01-13T12:05:18;12.20;;;7.45;;
48925;SDS011;39838;59.938;30.642;2023-01-13T12:07:57;11.50;;;7.65;;
48925;SDS011;39838;59.938;30.642;2023-01-13T12:10:36;12.20;;;7.00;;
48925;SDS011;39838;59.938;30.642;2023-01-13T12:13:14;16.95;;;8.02;;
48925;SDS011;39838;59.938;30.642;2023-01-13T12:18:50;14.38;;;7.40;;
48925;SDS011;39838;59.938;30.642;2023-01-13T12:21:32;12.85;;;7.63;;
48925;SDS011;39838;59.938;30.642;2023-01-13T12:24:08;14.20;;;7.60;;
48925;SDS011;39838;59.938;30.642;2023-01-13T12:26:45;14.18;;;7.72;;
48925;SDS011;39838;59.938;30.642;2023-01-13T12:29:18;16.08;;;7.32;;
48925;SDS011;39838;59.938;30.642;2023-01-13T12:31:46;12.80;;;7.30;;
48925;SDS011;39838;59.938;30.642;2023-01-13T12:34:23;17.05;;;7.85;;
48925;SDS011;39838;59.938;30.642;2023-01-13T12:37:01;12.65;;;7.50;;
48925;SDS011;39838;59.938;30.642;2023-01-13T12:39:40;14.80;;;7.97;;
48925;SDS011;39838;59.938;30.642;2023-01-13T12:42:15;13.73;;;7.78;;
48925;SDS011;39838;59.938;30.642;2023-01-13T12:45:15;16.35;;;7.68;;
48925;SDS011;39838;59.938;30.642;2023-01-13T12:47:47;14.95;;;7.65;;
48925;SDS011;39838;59.938;30.642;2023-01-13T13:04:53;18.33;;;9.20;;
48925;SDS011;39838;59.938;30.642;2023-01-13T13:07:25;15.95;;;9.40;;
48925;SDS011;39838;59.938;30.642;2023-01-13T13:10:00;17.60;;;9.20;;
48925;SDS011;39838;59.938;30.642;2023-01-13T13:12:33;19.30;;;9.80;;
48925;SDS011;39838;59.938;30.642;2023-01-13T13:15:35;19.05;;;9.02;;
48925;SDS011;39838;59.938;30.642;2023-01-13T13:18:15;18.70;;;10.38;;
48925;SDS011;39838;59.938;30.642;2023-01-13T13:23:38;17.90;;;8.90;;
48925;SDS011;39838;59.938;30.642;2023-01-13T13:26:27;19.70;;;9.60;;
48925;SDS011;39838;59.938;30.642;2023-01-13T13:29:05;21.45;;;10.20;;
48925;SDS011;39838;59.938;30.642;2023-01-13T13:31:55;21.95;;;9.73;;
48925;SDS011;39838;59.938;30.642;2023-01-13T13:34:33;17.70;;;9.60;;
48925;SDS011;39838;59.938;30.642;2023-01-13T13:40:23;19.83;;;10.70;;
48925;SDS011;39838;59.938;30.642;2023-01-13T13:43:09;18.65;;;10.00;;
48925;SDS011;39838;59.938;30.642;2023-01-13T13:45:56;20.17;;;10.38;;
48925;SDS011;39838;59.938;30.642;2023-01-13T13:48:48;19.13;;;10.43;;
48925;SDS011;39838;59.938;30.642;2023-01-13T13:51:22;21.05;;;10.38;;
48925;SDS011;39838;59.938;30.642;2023-01-13T13:53:53;20.25;;;10.50;;
48925;SDS011;39838;59.938;30.642;2023-01-13T13:56:24;21.40;;;9.77;;
48925;SDS011;39838;59.938;30.642;2023-01-13T13:58:54;20.48;;;10.65;;
48925;SDS011;39838;59.938;30.642;2023-01-13T14:01:23;17.95;;;9.73;;
48925;SDS011;39838;59.938;30.642;2023-01-13T14:04:03;21.15;;;11.13;;
48925;SDS011;39838;59.938;30.642;2023-01-13T14:06:36;19.40;;;10.35;;
48925;SDS011;39838;59.938;30.642;2023-01-13T14:09:11;17.80;;;11.40;;
48925;SDS011;39838;59.938;30.642;2023-01-13T14:11:42;24.58;;;11.68;;
48925;SDS011;39838;59.938;30.642;2023-01-13T14:14:18;20.58;;;11.43;;
48925;SDS011;39838;59.938;30.642;2023-01-13T14:16:47;22.45;;;11.35;;
48925;SDS011;39838;59.938;30.642;2023-01-13T14:19:21;22.17;;;11.75;;
48925;SDS011;39838;59.938;30.642;2023-01-13T14:21:53;22.38;;;11.43;;
48925;SDS011;39838;59.938;30.642;2023-01-13T14:24:20;19.25;;;11.55;;
48925;SDS011;39838;59.938;30.642;2023-01-13T14:26:49;21.83;;;12.60;;
48925;SDS011;39838;59.938;30.642;2023-01-13T14:29:18;22.13;;;12.00;;
48925;SDS011;39838;59.938;30.642;2023-01-13T14:31:49;22.95;;;12.20;;
48925;SDS011;39838;59.938;30.642;2023-01-13T14:34:19;22.02;;;12.90;;
48925;SDS011;39838;59.938;30.642;2023-01-13T14:36:47;19.95;;;11.75;;
48925;SDS011;39838;59.938;30.642;2023-01-13T14:39:30;22.88;;;13.52;;
48925;SDS011;39838;59.938;30.642;2023-01-13T14:42:03;25.92;;;12.77;;
48925;SDS011;39838;59.938;30.642;2023-01-13T14:44:30;24.35;;;13.88;;
48925;SDS011;39838;59.938;30.642;2023-01-13T14:47:02;21.85;;;12.82;;
48925;SDS011;39838;59.938;30.642;2023-01-13T14:49:31;20.73;;;12.35;;
48925;SDS011;39838;59.938;30.642;2023-01-13T14:52:02;21.35;;;11.60;;
48925;SDS011;39838;59.938;30.642;2023-01-13T14:54:42;23.33;;;12.57;;
48925;SDS011;39838;59.938;30.642;2023-01-13T14:57:12;21.60;;;11.80;;
48925;SDS011;39838;59.938;30.642;2023-01-13T14:59:42;21.85;;;11.98;;
48925;SDS011;39838;59.938;30.642;2023-01-13T15:05:26;22.02;;;12.00;;
48925;SDS011;39838;59.938;30.642;2023-01-13T15:07:59;21.52;;;12.43;;
48925;SDS011;39838;59.938;30.642;2023-01-13T15:10:29;19.92;;;11.18;;
48925;SDS011;39838;59.938;30.642;2023-01-13T15:12:59;19.60;;;11.45;;
48925;SDS011;39838;59.938;30.642;2023-01-13T15:15:28;21.52;;;11.68;;
48925;SDS011;39838;59.938;30.642;2023-01-13T15:17:59;22.77;;;12.60;;
48925;SDS011;39838;59.938;30.642;2023-01-13T15:20:27;23.75;;;12.60;;
48925;SDS011;39838;59.938;30.642;2023-01-13T15:22:55;23.27;;;11.88;;
48925;SDS011;39838;59.938;30.642;2023-01-13T15:25:23;22.45;;;11.60;;
48925;SDS011;39838;59.938;30.642;2023-01-13T15:27:51;17.55;;;10.23;;
48925;SDS011;39838;59.938;30.642;2023-01-13T15:30:19;18.58;;;10.98;;